Time;durP1;ratioP1;P1;durP2;ratioP2;P2;SDS_P1;SDS_P2;PMS_P1;PMS_P2;Temp;Humidity;BMP_temperature;BMP_pressure;BME280_temperature;BME280_humidity;BME280_pressure;Samples;Min_cycle;Max_cycle;Signal;HPM_P1;HPM_P2
2022/10/16 00:01:24;;;;;;;7.50;3.90;;;;;;;3.21;71.63;99727.17;101801;1303;62099;-25
2022/10/16 00:03:51;;;;;;;7.70;2.70;;;;;;;3.11;72.03;99729.09;101823;1302;62584;-25
2022/10/16 00:06:19;;;;;;;7.30;3.50;;;;;;;3.62;71.80;99729.63;101955;1302;74263;-25
2022/10/16 00:08:47;;;;;;;8.00;4.00;;;;;;;4.25;70.16;99729.18;101734;1300;76749;-25
2022/10/16 00:11:16;;;;;;;8.40;4.00;;;;;;;4.38;69.38;99732.55;101936;1297;74922;-25
2022/10/16 00:13:43;;;;;;;6.70;3.70;;;;;;;4.27;69.03;99732.34;101568;1306;61173;-25
2022/10/16 00:16:11;;;;;;;9.30;4.80;;;;;;;4.06;69.29;99730.17;102004;1305;61986;-25
2022/10/16 00:18:38;;;;;;;6.20;3.80;;;;;;;3.86;69.72;99731.73;101869;1302;75442;-25
2022/10/16 00:21:06;;;;;;;6.10;3.80;;;;;;;3.65;70.02;99735.67;102120;1302;76781;-25
2022/10/16 00:23:34;;;;;;;7.00;4.00;;;;;;;3.43;70.51;99734.36;101830;1298;74939;-25
2022/10/16 00:26:04;;;;;;;5.20;3.90;;;;;;;3.25;71.01;99739.04;102132;1302;61785;-25
2022/10/16 00:28:31;;;;;;;8.10;4.50;;;;;;;3.08;71.28;99739.34;101879;1296;61148;-25
2022/10/16 00:30:59;;;;;;;6.30;3.00;;;;;;;2.96;71.76;99738.46;101945;1296;75552;-25
2022/10/16 00:33:26;;;;;;;5.00;2.70;;;;;;;3.45;72.16;99744.57;102161;1294;76700;-25
2022/10/16 00:35:53;;;;;;;6.60;3.70;;;;;;;4.08;70.47;99741.95;101950;1302;74019;-25
2022/10/16 00:38:20;;;;;;;10.20;4.60;;;;;;;4.23;69.80;99745.45;101937;1302;63108;-25
2022/10/16 00:40:47;;;;;;;7.20;3.90;;;;;;;4.13;69.51;99744.33;101989;1302;61972;-25
2022/10/16 00:43:33;;;;;;;11.00;4.00;;;;;;;3.90;69.63;99746.48;102080;1296;74543;-25
2022/10/16 00:46:01;;;;;;;7.50;4.40;;;;;;;3.63;70.17;99746.58;101878;1298;75869;-25
2022/10/16 00:48:28;;;;;;;6.90;3.90;;;;;;;3.43;70.54;99749.64;101885;1300;75580;-26
2022/10/16 00:50:55;;;;;;;7.20;3.30;;;;;;;3.21;70.80;99752.20;102077;1294;61157;-25
2022/10/16 00:53:23;;;;;;;6.60;2.50;;;;;;;3.00;71.35;99754.73;101843;1302;61997;-25
2022/10/16 00:55:50;;;;;;;8.60;4.60;;;;;;;2.86;71.99;99757.52;101851;1302;75536;-25
2022/10/16 00:58:17;;;;;;;6.90;2.90;;;;;;;2.78;72.33;99758.48;101876;1302;76611;-25
2022/10/16 01:00:44;;;;;;;7.10;3.40;;;;;;;3.29;72.41;99761.36;101885;1305;75199;-25
2022/10/16 01:03:31;;;;;;;5.00;2.70;;;;;;;3.93;70.91;99764.40;101898;1302;62527;-25
2022/10/16 01:06:26;;;;;;;7.10;4.20;;;;;;;4.03;69.65;99758.65;101878;1302;63077;-25
2022/10/16 01:09:15;;;;;;;5.60;3.40;;;;;;;3.82;69.92;99756.64;101922;1302;75304;-25
2022/10/16 01:12:08;;;;;;;7.40;4.20;;;;;;;3.50;70.40;99757.26;101815;1305;75718;-25
2022/10/16 01:14:48;;;;;;;10.60;4.70;;;;;;;3.18;70.94;99752.17;101790;1305;75023;-25
2022/10/16 01:17:18;;;;;;;8.40;4.70;;;;;;;2.90;71.60;99751.54;101888;1305;62746;-25
2022/10/16 01:20:11;;;;;;;9.50;3.60;;;;;;;2.68;72.27;99749.29;101906;1302;62620;-26
2022/10/16 01:22:53;;;;;;;6.00;4.10;;;;;;;2.45;72.93;99750.11;101952;1302;75578;-25
2022/10/16 01:26:02;;;;;;;7.20;3.30;;;;;;;2.31;73.45;99749.93;101844;1296;75910;-25
2022/10/16 01:28:34;;;;;;;8.20;4.60;;;;;;;3.07;73.14;99752.95;101985;1298;74247;-25
2022/10/16 01:31:01;;;;;;;7.40;3.20;;;;;;;3.53;72.02;99750.60;101893;1302;62892;-25
2022/10/16 01:33:33;;;;;;;6.10;3.30;;;;;;;3.55;71.41;99745.89;101897;1294;61270;-25
2022/10/16 01:36:03;;;;;;;7.10;3.90;;;;;;;3.36;71.38;99743.89;101524;1308;75502;-25
2022/10/16 01:38:33;;;;;;;8.50;4.40;;;;;;;3.14;71.90;99747.70;101892;1304;75250;-26
2022/10/16 01:41:09;;;;;;;8.10;4.40;;;;;;;2.91;72.43;99745.84;101874;1302;73775;-26
2022/10/16 01:43:43;;;;;;;7.40;4.10;;;;;;;2.68;72.85;99752.52;101783;1300;62103;-26
2022/10/16 01:46:10;;;;;;;6.90;4.30;;;;;;;2.50;73.35;99751.30;101751;1302;61253;-25
2022/10/16 01:48:37;;;;;;;3.60;2.60;;;;;;;2.37;73.84;99752.80;101850;1305;74628;-25
2022/10/16 01:51:15;;;;;;;4.30;2.70;;;;;;;2.80;74.09;99759.80;101905;1295;75571;-26
2022/10/16 01:53:43;;;;;;;9.10;3.90;;;;;;;3.46;72.45;99766.84;101858;1304;73918;-25
2022/10/16 01:56:11;;;;;;;6.90;3.60;;;;;;;3.55;71.82;99774.38;101873;1303;62854;-25
2022/10/16 01:58:45;;;;;;;10.30;4.20;;;;;;;3.37;71.71;99769.44;101890;1302;61508;-25
2022/10/16 02:01:13;;;;;;;8.00;4.10;;;;;;;3.13;72.04;99771.39;101943;1302;73522;-25
2022/10/16 02:03:40;;;;;;;8.20;4.40;;;;;;;2.92;72.27;99769.30;101841;1303;76750;-25
2022/10/16 02:06:07;;;;;;;7.80;4.00;;;;;;;2.71;72.63;99768.71;101921;1305;75266;-25
2022/10/16 02:08:34;;;;;;;5.50;3.60;;;;;;;2.52;73.24;99770.25;101854;1297;61123;-25
2022/10/16 02:11:01;;;;;;;6.50;4.00;;;;;;;2.33;73.42;99768.55;101825;1288;61521;-25
2022/10/16 02:13:53;;;;;;;7.10;2.60;;;;;;;2.17;73.67;99772.52;101849;1302;75601;-25
2022/10/16 02:16:20;;;;;;;8.10;3.30;;;;;;;2.71;73.94;99772.66;101910;1297;76492;-26
2022/10/16 02:18:47;;;;;;;5.60;3.20;;;;;;;3.27;72.88;99777.03;101920;1305;75210;-25
2022/10/16 02:21:22;;;;;;;7.70;3.70;;;;;;;3.33;72.06;99780.60;101903;1303;62734;-25
2022/10/16 02:24:03;;;;;;;7.20;3.70;;;;;;;3.17;72.19;99777.61;101843;1301;62560;-25
2022/10/16 02:26:54;;;;;;;8.30;3.70;;;;;;;2.94;72.49;99778.33;101859;1303;76533;-26
2022/10/16 02:29:23;;;;;;;6.50;3.80;;;;;;;2.68;72.71;99775.84;101901;1298;75742;-25
2022/10/16 02:31:52;;;;;;;6.10;3.80;;;;;;;2.48;73.08;99775.37;101873;1307;74382;-25
2022/10/16 02:34:19;;;;;;;7.40;3.90;;;;;;;2.27;73.31;99779.56;101917;1297;61102;-25
2022/10/16 02:36:46;;;;;;;9.70;3.70;;;;;;;2.06;73.71;99783.90;101945;1302;62743;-25
2022/10/16 02:39:13;;;;;;;4.70;2.20;;;;;;;1.88;74.25;99778.80;101797;1302;76441;-25
2022/10/16 02:41:40;;;;;;;6.80;3.20;;;;;;;2.34;74.44;99783.39;101942;1303;75538;-25
2022/10/16 02:44:07;;;;;;;8.50;3.50;;;;;;;3.01;73.21;99781.15;101915;1302;74208;-25
2022/10/16 02:46:34;;;;;;;6.40;3.80;;;;;;;3.14;72.41;99780.98;101775;1297;62035;-25
2022/10/16 02:49:01;;;;;;;6.50;3.70;;;;;;;2.97;72.17;99781.29;101920;1288;61819;-25
2022/10/16 02:51:28;;;;;;;6.90;3.60;;;;;;;2.74;72.56;99780.95;101916;1302;75106;-26
2022/10/16 02:53:55;;;;;;;12.20;4.40;;;;;;;2.52;72.85;99781.59;101885;1298;75547;-25
2022/10/16 02:56:22;;;;;;;7.10;4.30;;;;;;;2.30;72.98;99785.77;101826;1305;75233;-25
2022/10/16 02:58:49;;;;;;;7.00;3.80;;;;;;;2.09;73.55;99789.27;101871;1302;62176;-25
2022/10/16 03:01:16;;;;;;;6.50;4.10;;;;;;;1.91;73.86;99792.92;101898;1302;62816;-25
2022/10/16 03:03:43;;;;;;;5.10;3.00;;;;;;;1.78;74.23;99793.55;102014;1298;75447;-26
2022/10/16 03:06:10;;;;;;;9.90;3.00;;;;;;;2.24;74.64;99798.16;101854;1302;76718;-25
2022/10/16 03:08:37;;;;;;;5.70;3.00;;;;;;;2.92;73.41;99804.98;102031;1302;74170;-25
2022/10/16 03:11:05;;;;;;;5.90;3.30;;;;;;;3.09;72.62;99807.42;102239;1299;62198;-26
2022/10/16 03:13:32;;;;;;;8.30;3.90;;;;;;;2.98;72.54;99802.52;102188;1299;62580;-26
2022/10/16 03:15:59;;;;;;;4.60;3.70;;;;;;;2.79;72.59;99802.88;102272;1299;76250;-26
2022/10/16 03:18:26;;;;;;;7.50;4.50;;;;;;;2.58;73.08;99809.33;102163;1294;76807;-26
2022/10/16 03:20:53;;;;;;;7.60;4.40;;;;;;;2.36;73.17;99813.48;102302;1295;74551;-25
2022/10/16 03:23:20;;;;;;;6.70;3.70;;;;;;;2.18;73.45;99820.65;102300;1299;62074;-25
2022/10/16 03:25:47;;;;;;;7.30;4.40;;;;;;;2.02;73.33;99821.69;102140;1293;61564;-25
2022/10/16 03:28:14;;;;;;;5.20;2.80;;;;;;;1.90;73.89;99824.32;102086;1295;76295;-25
2022/10/16 03:30:43;;;;;;;5.60;3.10;;;;;;;2.37;74.03;99823.91;102161;1302;77065;-25
2022/10/16 03:33:10;;;;;;;11.00;3.30;;;;;;;3.05;73.04;99827.64;101961;1295;74885;-25
2022/10/16 03:35:37;;;;;;;7.40;4.00;;;;;;;3.21;72.14;99830.30;102341;1299;61552;-25
2022/10/16 03:38:04;;;;;;;11.50;3.80;;;;;;;3.07;71.81;99826.89;102352;1292;62836;-25
2022/10/16 03:40:32;;;;;;;6.20;4.20;;;;;;;2.84;71.89;99829.62;102283;1292;76460;-25
2022/10/16 03:42:59;;;;;;;8.30;4.50;;;;;;;2.58;72.35;99833.28;102176;1302;77359;-25
2022/10/16 03:45:27;;;;;;;9.40;4.10;;;;;;;2.34;72.76;99831.39;102210;1285;74264;-26
2022/10/16 03:47:54;;;;;;;8.30;4.70;;;;;;;2.10;73.15;99832.56;102285;1299;61154;-25
2022/10/16 03:50:21;;;;;;;8.40;5.00;;;;;;;1.89;73.96;99832.22;102281;1299;61046;-25
2022/10/16 03:52:48;;;;;;;5.40;2.90;;;;;;;1.73;74.41;99836.34;102021;1301;76389;-25
2022/10/16 03:55:15;;;;;;;9.70;3.90;;;;;;;2.14;74.90;99836.86;102223;1299;75891;-25
2022/10/16 03:57:42;;;;;;;9.00;5.10;;;;;;;2.79;73.80;99839.58;102194;1291;74166;-25
2022/10/16 04:00:10;;;;;;;8.10;5.10;;;;;;;2.93;72.98;99836.84;102005;1301;62622;-25
2022/10/16 04:02:40;;;;;;;8.00;4.50;;;;;;;2.76;72.79;99832.66;101939;1297;61060;-25
2022/10/16 04:05:08;;;;;;;8.90;4.10;;;;;;;2.52;73.07;99830.59;101925;1299;76586;-25
2022/10/16 04:07:35;;;;;;;7.60;4.30;;;;;;;2.28;73.45;99835.21;101965;1302;76776;-25
2022/10/16 04:10:03;;;;;;;7.70;4.50;;;;;;;2.06;73.97;99836.80;102158;1297;72891;-25
2022/10/16 04:12:30;;;;;;;6.20;4.30;;;;;;;1.87;74.15;99838.98;101932;1288;61257;-26
2022/10/16 04:14:57;;;;;;;9.30;5.10;;;;;;;1.68;74.43;99842.83;102135;1302;61710;-25
2022/10/16 04:17:24;;;;;;;6.50;3.10;;;;;;;1.53;74.97;99843.12;101960;1294;76383;-25
2022/10/16 04:19:52;;;;;;;8.00;3.80;;;;;;;1.95;75.27;99839.89;102094;1294;76750;-25
2022/10/16 04:22:19;;;;;;;7.90;4.60;;;;;;;2.59;74.16;99840.46;102197;1292;73028;-25
2022/10/16 04:24:45;;;;;;;6.60;3.90;;;;;;;2.71;73.18;99846.05;102104;1301;62856;-25
2022/10/16 04:27:12;;;;;;;4.60;3.10;;;;;;;2.55;73.13;99843.70;102059;1301;61187;-26
2022/10/16 04:29:39;;;;;;;9.10;4.20;;;;;;;2.32;73.34;99847.42;102088;1301;76378;-25
2022/10/16 04:32:08;;;;;;;6.00;3.80;;;;;;;2.08;73.71;99850.11;101969;1301;76903;-25
2022/10/16 04:34:35;;;;;;;7.50;4.70;;;;;;;1.85;74.02;99854.09;101984;1297;75242;-25
2022/10/16 04:37:02;;;;;;;9.40;4.90;;;;;;;1.64;74.43;99858.02;102125;1285;61039;-25
2022/10/16 04:39:29;;;;;;;6.60;4.80;;;;;;;1.47;74.93;99863.52;101900;1302;62445;-25
2022/10/16 04:41:56;;;;;;;7.00;3.30;;;;;;;1.33;74.95;99867.88;102191;1302;75023;-25
2022/10/16 04:44:23;;;;;;;5.30;3.10;;;;;;;1.80;75.69;99863.86;102161;1297;74774;-25
2022/10/16 04:46:51;;;;;;;5.80;3.60;;;;;;;2.47;74.36;99864.70;102130;1294;75671;-25
2022/10/16 04:49:18;;;;;;;11.00;4.70;;;;;;;2.65;73.50;99862.57;102134;1294;62894;-25
2022/10/16 04:51:45;;;;;;;12.30;6.40;;;;;;;2.54;73.36;99862.06;102139;1294;61798;-26
2022/10/16 04:54:12;;;;;;;16.00;8.80;;;;;;;2.37;73.52;99860.61;102136;1301;75336;-26
2022/10/16 04:56:50;;;;;;;19.80;12.00;;;;;;;2.19;73.64;99865.84;102187;1301;76774;-25
2022/10/16 04:59:19;;;;;;;15.40;9.30;;;;;;;2.01;74.32;99865.92;101903;1301;74701;-25
2022/10/16 05:01:46;;;;;;;15.50;9.50;;;;;;;1.87;74.78;99869.95;101926;1305;61837;-25
2022/10/16 05:04:14;;;;;;;6.90;4.40;;;;;;;1.79;74.96;99875.16;102104;1295;62517;-25
2022/10/16 05:06:41;;;;;;;11.40;5.20;;;;;;;2.27;75.15;99878.39;102001;1294;76221;-25
2022/10/16 05:09:09;;;;;;;7.30;4.40;;;;;;;2.99;73.82;99873.17;101996;1297;75445;-25
2022/10/16 05:11:36;;;;;;;8.40;4.70;;;;;;;3.20;72.83;99874.78;102128;1291;72785;-25
2022/10/16 05:14:02;;;;;;;7.70;3.80;;;;;;;3.15;72.44;99877.02;102109;1300;61819;-25
2022/10/16 05:16:30;;;;;;;6.60;4.40;;;;;;;3.02;72.56;99882.83;102164;1294;62826;-25
2022/10/16 05:18:57;;;;;;;7.70;4.30;;;;;;;2.87;72.67;99888.87;102059;1300;76338;-25
2022/10/16 05:21:44;;;;;;;6.60;3.90;;;;;;;2.70;72.85;99894.44;102174;1300;76907;-25
2022/10/16 05:24:12;;;;;;;6.30;4.20;;;;;;;2.56;73.45;99895.10;102061;1302;75237;-25
2022/10/16 05:26:39;;;;;;;5.10;3.90;;;;;;;2.45;73.59;99903.33;101903;1278;62208;-25
2022/10/16 05:29:06;;;;;;;8.70;3.40;;;;;;;2.40;74.09;99901.98;102197;1302;62991;-25
2022/10/16 05:31:33;;;;;;;5.70;2.40;;;;;;;2.97;74.42;99900.64;102087;1292;76126;-25
2022/10/16 05:34:00;;;;;;;8.90;4.20;;;;;;;3.72;72.75;99905.26;102057;1301;76754;-25
2022/10/16 05:36:27;;;;;;;7.10;4.20;;;;;;;3.93;71.70;99904.62;102040;1297;73563;-25
2022/10/16 05:38:54;;;;;;;10.70;4.20;;;;;;;3.86;71.41;99908.50;102064;1302;61901;-25
2022/10/16 05:41:21;;;;;;;9.00;4.60;;;;;;;3.72;71.77;99911.11;102006;1301;62811;-25
2022/10/16 05:43:49;;;;;;;7.40;4.60;;;;;;;3.57;72.05;99911.30;102052;1301;75236;-25
2022/10/16 05:46:16;;;;;;;6.50;4.40;;;;;;;3.44;72.54;99913.37;102178;1301;76519;-26
2022/10/16 05:48:43;;;;;;;8.50;4.80;;;;;;;3.35;72.95;99917.98;102136;1287;75211;-25
2022/10/16 05:51:11;;;;;;;7.10;4.70;;;;;;;3.29;73.21;99922.52;102198;1301;61149;-25
2022/10/16 05:53:39;;;;;;;6.80;3.10;;;;;;;3.30;73.64;99927.43;101879;1294;62573;-25
2022/10/16 05:56:07;;;;;;;9.50;3.50;;;;;;;3.97;72.94;99934.01;101880;1301;75470;-25
2022/10/16 05:58:35;;;;;;;7.30;3.80;;;;;;;4.74;70.86;99939.93;101927;1295;75873;-25
2022/10/16 06:01:13;;;;;;;7.90;4.30;;;;;;;4.96;69.61;99940.55;101968;1301;74197;-25
2022/10/16 06:03:40;;;;;;;10.60;3.80;;;;;;;4.92;69.30;99939.70;102012;1294;61563;-25
2022/10/16 06:06:12;;;;;;;7.80;4.90;;;;;;;4.82;69.12;99944.79;102090;1301;62622;-25
2022/10/16 06:08:39;;;;;;;10.60;3.70;;;;;;;4.72;69.77;99954.48;101991;1301;76133;-25
2022/10/16 06:11:08;;;;;;;9.20;4.10;;;;;;;4.65;69.93;99953.23;101938;1299;75629;-25
2022/10/16 06:13:35;;;;;;;11.90;4.70;;;;;;;4.60;69.87;99961.48;101957;1301;74316;-25
2022/10/16 06:16:03;;;;;;;6.40;4.20;;;;;;;4.58;70.10;99959.54;102169;1294;61119;-25
2022/10/16 06:18:30;;;;;;;8.10;4.50;;;;;;;4.55;70.50;99960.16;101954;1305;62590;-25
2022/10/16 06:20:57;;;;;;;13.40;3.20;;;;;;;4.61;71.04;99958.57;102009;1301;76629;-25
2022/10/16 06:23:25;;;;;;;10.00;3.40;;;;;;;5.29;69.56;99961.64;101997;1294;75743;-25
2022/10/16 06:25:52;;;;;;;3.60;2.70;;;;;;;6.00;67.28;99967.39;102017;1301;73877;-25
2022/10/16 06:28:19;;;;;;;7.20;4.00;;;;;;;6.27;66.19;99969.21;101905;1298;61795;-25
2022/10/16 06:30:46;;;;;;;6.30;3.80;;;;;;;6.29;65.52;99969.62;101908;1300;61801;-25
2022/10/16 06:33:13;;;;;;;8.50;4.30;;;;;;;6.27;65.10;99975.91;102028;1301;76365;-25
2022/10/16 06:35:41;;;;;;;7.10;4.50;;;;;;;6.25;65.22;99976.17;101970;1301;76779;-25
2022/10/16 06:38:07;;;;;;;8.50;4.90;;;;;;;6.24;65.84;99976.73;101926;1301;73846;-25
2022/10/16 06:40:34;;;;;;;7.60;4.30;;;;;;;6.27;65.85;99976.45;101969;1294;61937;-25
2022/10/16 06:43:01;;;;;;;5.10;3.00;;;;;;;6.29;65.17;99978.58;101977;1300;61185;-25
2022/10/16 06:45:28;;;;;;;5.40;2.90;;;;;;;6.31;64.98;99979.70;101970;1301;76534;-25
2022/10/16 06:47:55;;;;;;;6.50;3.90;;;;;;;6.35;65.38;99984.15;101957;1294;77057;-25
2022/10/16 06:50:23;;;;;;;5.70;3.90;;;;;;;6.42;64.82;99985.88;102112;1301;75295;-25
2022/10/16 06:52:50;;;;;;;8.90;3.90;;;;;;;6.53;64.88;99989.84;102191;1295;61121;-25
2022/10/16 06:55:17;;;;;;;3.60;2.20;;;;;;;6.67;63.83;99995.36;102057;1302;62842;-25
2022/10/16 06:57:44;;;;;;;6.50;3.20;;;;;;;6.84;63.76;99996.05;102089;1293;75274;-25
2022/10/16 07:00:11;;;;;;;8.10;4.40;;;;;;;7.06;62.66;99992.15;101890;1304;75644;-25
2022/10/16 07:02:39;;;;;;;7.60;4.80;;;;;;;7.20;61.57;99990.63;101926;1297;73413;-25
2022/10/16 07:05:06;;;;;;;3.00;2.30;;;;;;;7.28;60.91;99986.39;101999;1294;62904;-25
2022/10/16 07:07:33;;;;;;;9.70;4.50;;;;;;;7.34;61.09;99990.91;102034;1301;62834;-25
2022/10/16 07:10:00;;;;;;;9.60;4.80;;;;;;;7.52;60.18;99981.33;101977;1294;76244;-25
2022/10/16 07:12:27;;;;;;;9.10;2.80;;;;;;;7.63;60.87;99984.73;101979;1301;76481;-25
2022/10/16 07:14:56;;;;;;;7.00;3.40;;;;;;;7.79;60.46;99986.23;101964;1301;74239;-25
2022/10/16 07:17:23;;;;;;;4.40;2.60;;;;;;;8.00;59.93;99993.21;102250;1301;61954;-25
2022/10/16 07:19:52;;;;;;;5.50;2.80;;;;;;;8.09;58.93;100001.39;102138;1301;62853;-25
2022/10/16 07:22:19;;;;;;;4.60;3.00;;;;;;;8.09;58.55;99999.69;102050;1288;76458;-25
2022/10/16 07:24:46;;;;;;;8.50;4.60;;;;;;;8.22;59.20;99994.80;102179;1301;74684;-25
2022/10/16 07:27:18;;;;;;;4.30;2.70;;;;;;;8.38;59.69;99997.86;102271;1302;75178;-25
2022/10/16 07:29:45;;;;;;;3.90;2.60;;;;;;;8.46;57.73;99995.52;101989;1301;62666;-25
2022/10/16 07:32:12;;;;;;;3.20;2.40;;;;;;;8.56;57.32;99997.74;102102;1301;63053;-25
2022/10/16 07:34:39;;;;;;;6.20;3.50;;;;;;;8.73;57.83;99994.38;101966;1301;76130;-25
2022/10/16 07:37:06;;;;;;;11.90;3.80;;;;;;;8.98;58.11;99992.54;102060;1301;76801;-25
2022/10/16 07:39:33;;;;;;;3.80;2.30;;;;;;;9.22;55.92;99994.41;102151;1301;75339;-25
2022/10/16 07:42:00;;;;;;;5.90;3.40;;;;;;;9.25;55.74;99997.16;101868;1291;63027;-25
2022/10/16 07:44:27;;;;;;;5.60;3.00;;;;;;;9.44;55.01;99999.96;101902;1300;62646;-25
2022/10/16 07:46:54;;;;;;;3.20;2.00;;;;;;;9.58;55.66;99999.64;102189;1301;75062;-25
2022/10/16 07:49:22;;;;;;;8.90;3.50;;;;;;;9.67;54.13;99993.54;102251;1299;75822;-25
2022/10/16 07:51:49;;;;;;;7.30;3.30;;;;;;;9.83;54.57;100000.53;102207;1300;74243;-25
2022/10/16 07:54:15;;;;;;;7.90;2.90;;;;;;;9.88;53.28;100006.70;102227;1302;63081;-26
2022/10/16 07:56:42;;;;;;;3.60;2.30;;;;;;;9.85;52.36;100013.41;102168;1302;62597;-25
2022/10/16 07:59:10;;;;;;;8.50;3.10;;;;;;;9.88;52.58;100017.20;102175;1294;75169;-25
2022/10/16 08:01:37;;;;;;;4.00;2.60;;;;;;;10.05;52.85;100020.52;102140;1298;76040;-25
2022/10/16 08:04:05;;;;;;;7.10;3.60;;;;;;;10.17;52.77;100024.58;102166;1302;74943;-25
2022/10/16 08:06:38;;;;;;;6.50;3.40;;;;;;;10.42;53.33;100026.31;102128;1296;62912;-25
2022/10/16 08:09:06;;;;;;;6.30;2.60;;;;;;;10.67;53.21;100027.32;102009;1295;62697;-25
2022/10/16 08:11:33;;;;;;;7.80;3.20;;;;;;;10.87;52.15;100025.80;102025;1302;76310;-25
2022/10/16 08:14:00;;;;;;;4.80;2.80;;;;;;;11.03;51.82;100028.23;101908;1302;74638;-25
2022/10/16 08:16:27;;;;;;;4.90;3.00;;;;;;;11.15;50.06;100028.27;101997;1302;75385;-25
2022/10/16 08:18:54;;;;;;;4.90;2.80;;;;;;;11.09;50.17;100037.38;102091;1301;61552;-25
2022/10/16 08:21:23;;;;;;;4.30;3.00;;;;;;;11.23;49.14;100032.63;102025;1302;61671;-25
2022/10/16 08:23:50;;;;;;;5.30;3.20;;;;;;;11.34;50.38;100028.89;102017;1298;76593;-25
2022/10/16 08:26:25;;;;;;;4.90;3.30;;;;;;;11.63;49.59;100027.95;102085;1300;76783;-22
2022/10/16 08:28:52;;;;;;;4.80;2.50;;;;;;;11.82;49.40;100028.15;101850;1302;74255;-23
2022/10/16 08:31:20;;;;;;;7.00;3.30;;;;;;;11.98;48.74;100032.56;101877;1301;61847;-23
2022/10/16 08:33:47;;;;;;;10.10;2.30;;;;;;;12.16;48.60;100030.36;102107;1294;62586;-22
2022/10/16 08:36:15;;;;;;;3.80;2.50;;;;;;;12.31;47.88;100030.31;102005;1301;75196;-24
2022/10/16 08:38:42;;;;;;;5.30;2.20;;;;;;;12.52;46.96;100025.95;101942;1297;76919;-25
2022/10/16 08:41:12;;;;;;;5.50;2.30;;;;;;;12.57;46.70;100030.13;101977;1294;75193;-25
2022/10/16 08:43:42;;;;;;;6.90;2.20;;;;;;;12.54;45.30;100029.78;101857;1302;61704;-25
2022/10/16 08:46:30;;;;;;;4.30;2.30;;;;;;;12.54;45.49;100030.73;101945;1300;61565;-25
2022/10/16 08:48:58;;;;;;;6.40;3.50;;;;;;;12.74;44.85;100034.11;101937;1295;76311;-25
2022/10/16 08:51:36;;;;;;;4.10;2.30;;;;;;;12.97;45.37;100048.22;101958;1301;76686;-25
2022/10/16 08:54:21;;;;;;;5.70;1.80;;;;;;;13.26;44.81;100047.09;102163;1301;75212;-23
2022/10/16 08:56:48;;;;;;;3.20;1.70;;;;;;;13.41;43.65;100047.54;102002;1294;62832;-23
2022/10/16 08:59:16;;;;;;;2.80;1.80;;;;;;;13.62;44.18;100044.85;102001;1301;62573;-23
2022/10/16 09:01:45;;;;;;;7.50;2.50;;;;;;;13.79;43.45;100041.42;102002;1302;75488;-23
2022/10/16 09:04:41;;;;;;;5.20;2.70;;;;;;;14.01;43.32;100039.39;101971;1302;75813;-23
2022/10/16 09:07:23;;;;;;;4.70;2.10;;;;;;;14.00;41.49;100031.46;102099;1301;73931;-23
2022/10/16 09:10:08;;;;;;;23.50;2.80;;;;;;;14.01;42.50;100026.44;102101;1294;61652;-23
2022/10/16 09:12:56;;;;;;;2.70;1.30;;;;;;;14.36;41.73;100021.59;102025;1301;62693;-23
2022/10/16 09:15:35;;;;;;;5.80;2.70;;;;;;;14.26;40.89;100019.23;102185;1294;75119;-23
2022/10/16 09:18:10;;;;;;;6.60;1.90;;;;;;;14.31;41.23;100017.73;101969;1305;76729;-23
2022/10/16 09:20:50;;;;;;;2.80;1.70;;;;;;;14.60;40.83;100023.41;101933;1296;74214;-23
2022/10/16 09:23:28;;;;;;;6.50;1.70;;;;;;;14.84;39.34;100018.04;101896;1304;61155;-23
2022/10/16 09:25:55;;;;;;;4.40;1.70;;;;;;;14.70;40.97;100018.66;101908;1306;62833;-24
2022/10/16 09:28:22;;;;;;;4.90;1.70;;;;;;;15.13;40.31;100013.16;102176;1294;76523;-24
2022/10/16 09:30:50;;;;;;;7.00;2.20;;;;;;;15.34;39.47;100003.69;101975;1300;75969;-24
2022/10/16 09:33:18;;;;;;;3.70;2.10;;;;;;;15.47;38.61;99998.70;102059;1301;75181;-24
2022/10/16 09:35:49;;;;;;;4.20;1.80;;;;;;;15.54;38.19;99994.02;101937;1298;63059;-24
2022/10/16 09:38:29;;;;;;;6.80;2.10;;;;;;;15.51;37.85;99995.67;102001;1295;61777;-24
2022/10/16 09:41:20;;;;;;;2.70;1.60;;;;;;;15.50;37.56;100000.33;101930;1301;76124;-24
2022/10/16 09:43:58;;;;;;;2.60;1.40;;;;;;;15.38;38.10;99995.97;102195;1291;75830;-25
2022/10/16 09:46:30;;;;;;;2.80;1.10;;;;;;;14.76;38.28;99994.54;101912;1298;73624;-24
2022/10/16 09:49:24;;;;;;;4.40;1.80;;;;;;;14.94;38.75;100000.38;101898;1304;61884;-24
2022/10/16 09:51:53;;;;;;;4.30;1.70;;;;;;;15.14;38.26;99998.34;102210;1301;61815;-24
2022/10/16 09:54:21;;;;;;;3.50;1.40;;;;;;;15.26;37.67;99998.50;102257;1294;76523;-24
2022/10/16 09:56:52;;;;;;;2.60;1.40;;;;;;;15.36;38.44;100003.95;102232;1301;76714;-24
2022/10/16 09:59:20;;;;;;;3.00;2.20;;;;;;;15.42;37.19;99996.11;101923;1301;75279;-24
2022/10/16 10:01:50;;;;;;;3.00;1.60;;;;;;;15.42;36.99;100001.59;101960;1302;62762;-24
2022/10/16 10:04:18;;;;;;;3.90;1.80;;;;;;;15.60;37.23;99999.84;101959;1301;61847;-24
2022/10/16 10:06:47;;;;;;;3.50;2.10;;;;;;;15.85;36.92;100006.63;102014;1301;75019;-24
2022/10/16 10:09:28;;;;;;;3.30;1.80;;;;;;;16.09;36.82;100008.34;101980;1295;76768;-24
2022/10/16 10:12:04;;;;;;;2.00;1.60;;;;;;;15.96;35.80;100006.36;102047;1300;75169;-24
2022/10/16 10:14:38;;;;;;;2.20;1.50;;;;;;;16.00;36.65;100006.72;102130;1292;61841;-24
2022/10/16 10:17:05;;;;;;;3.00;1.80;;;;;;;16.23;36.66;100007.11;101923;1302;62671;-25
2022/10/16 10:19:44;;;;;;;3.50;1.70;;;;;;;16.28;36.26;100007.03;102023;1302;76377;-24
2022/10/16 10:22:24;;;;;;;2.60;1.20;;;;;;;16.50;36.38;100013.26;101222;1302;1131869;-24
2022/10/16 10:24:56;;;;;;;2.60;1.50;;;;;;;16.43;35.06;100010.97;101936;1300;75207;-24
2022/10/16 10:27:44;;;;;;;2.60;1.30;;;;;;;16.33;35.02;100014.45;102044;1302;61273;-24
2022/10/16 10:30:35;;;;;;;3.00;1.70;;;;;;;16.29;34.15;100012.55;102208;1294;63015;-24
2022/10/16 10:33:24;;;;;;;3.50;1.70;;;;;;;16.16;35.60;100010.76;102204;1298;75190;-24
2022/10/16 10:36:03;;;;;;;2.60;1.80;;;;;;;16.16;35.14;100007.02;102229;1299;76758;-24
2022/10/16 10:38:49;;;;;;;3.40;1.90;;;;;;;16.12;35.16;100004.61;102300;1299;73998;-24
2022/10/16 10:41:27;;;;;;;2.40;1.50;;;;;;;16.02;35.06;100004.98;102300;1302;62744;-24
2022/10/16 10:44:15;;;;;;;2.20;1.30;;;;;;;15.92;34.79;99999.37;102096;1299;61525;-24
2022/10/16 10:47:09;;;;;;;7.30;1.70;;;;;;;15.67;34.84;99997.14;102155;1300;76370;-24
2022/10/16 10:49:53;;;;;;;1.80;1.60;;;;;;;15.79;35.49;99998.01;101981;1294;76649;-24
2022/10/16 10:52:39;;;;;;;4.00;1.90;;;;;;;16.08;35.18;99992.36;102133;1299;73355;-24
2022/10/16 10:55:31;;;;;;;2.90;1.90;;;;;;;16.34;35.68;99991.42;101945;1294;62017;-24
2022/10/16 10:58:21;;;;;;;4.80;2.20;;;;;;;16.64;35.60;99992.70;101957;1299;62871;-24
2022/10/16 11:01:17;;;;;;;6.10;2.50;;;;;;;16.86;34.33;99984.61;101933;1302;75006;-25
2022/10/16 11:04:00;;;;;;;2.70;1.60;;;;;;;16.70;34.49;99981.30;101983;1296;76678;-24
2022/10/16 11:06:35;;;;;;;3.00;1.70;;;;;;;16.84;35.09;99982.10;101985;1293;73867;-24
2022/10/16 11:09:42;;;;;;;3.20;1.40;;;;;;;17.00;34.86;99979.13;101918;1300;62902;-24
2022/10/16 11:12:46;;;;;;;3.40;1.40;;;;;;;17.10;35.16;99979.42;101412;1307;62214;-24
2022/10/16 11:15:21;;;;;;;3.40;1.70;;;;;;;17.17;33.54;99980.34;100950;1310;75181;-24
2022/10/16 11:17:52;;;;;;;2.40;1.60;;;;;;;17.13;33.42;99983.15;101162;1309;76829;-24
2022/10/16 11:20:30;;;;;;;4.80;1.70;;;;;;;17.07;33.38;99981.40;101331;1308;74222;-24
2022/10/16 11:23:19;;;;;;;1.40;1.20;;;;;;;16.91;32.91;99982.90;101031;1312;62401;-24
2022/10/16 11:25:46;;;;;;;1.80;1.30;;;;;;;16.34;33.76;99981.29;101189;1308;62867;-24
2022/10/16 11:28:24;;;;;;;2.70;1.50;;;;;;;16.22;34.03;99978.10;101268;1301;76173;-24
2022/10/16 11:31:05;;;;;;;5.20;1.80;;;;;;;15.98;33.16;99982.48;101243;1307;75805;-24
2022/10/16 11:33:42;;;;;;;2.50;1.60;;;;;;;15.91;34.32;99985.05;101417;1309;75385;-24
2022/10/16 11:36:33;;;;;;;2.70;1.90;;;;;;;15.89;34.50;99990.16;101340;1304;63025;-24
2022/10/16 11:39:12;;;;;;;2.90;1.70;;;;;;;15.54;34.72;99987.74;101351;1309;61591;-24
2022/10/16 11:41:49;;;;;;;5.30;1.80;;;;;;;15.58;35.61;99987.77;101170;1307;76364;-24
2022/10/16 11:44:35;;;;;;;2.50;1.60;;;;;;;15.77;36.74;99986.77;101857;1302;76742;-24
2022/10/16 11:47:31;;;;;;;3.40;1.50;;;;;;;15.87;35.25;99983.36;102054;1301;75326;-24
2022/10/16 11:50:30;;;;;;;4.60;1.80;;;;;;;15.82;36.05;99985.48;102160;1294;62914;-24